sensor_id;sensor_type;location;lat;lon;timestamp;P1;durP1;ratioP1;P2;durP2;ratioP2
20320;SDS011;10318;47.674;9.052;2022-12-07T00:01:45;27.67;;;19.67;;
20320;SDS011;10318;47.674;9.052;2022-12-07T00:04:13;29.55;;;20.67;;
20320;SDS011;10318;47.674;9.052;2022-12-07T00:06:41;27.63;;;19.02;;
20320;SDS011;10318;47.674;9.052;2022-12-07T00:09:15;29.67;;;20.55;;
20320;SDS011;10318;47.674;9.052;2022-12-07T00:11:42;30.75;;;19.88;;
20320;SDS011;10318;47.674;9.052;2022-12-07T00:14:13;29.08;;;19.92;;
20320;SDS011;10318;47.674;9.052;2022-12-07T00:16:41;29.38;;;20.45;;
20320;SDS011;10318;47.674;9.052;2022-12-07T00:19:08;26.67;;;19.02;;
20320;SDS011;10318;47.674;9.052;2022-12-07T00:21:35;27.25;;;19.48;;
20320;SDS011;10318;47.674;9.052;2022-12-07T00:24:03;27.10;;;18.95;;
20320;SDS011;10318;47.674;9.052;2022-12-07T00:26:30;25.67;;;19.17;;
20320;SDS011;10318;47.674;9.052;2022-12-07T00:29:01;32.70;;;20.75;;
20320;SDS011;10318;47.674;9.052;2022-12-07T00:31:29;33.85;;;22.45;;
20320;SDS011;10318;47.674;9.052;2022-12-07T00:33:56;32.28;;;21.55;;
20320;SDS011;10318;47.674;9.052;2022-12-07T00:36:23;32.40;;;21.73;;
20320;SDS011;10318;47.674;9.052;2022-12-07T00:38:53;37.35;;;23.20;;
20320;SDS011;10318;47.674;9.052;2022-12-07T00:41:21;36.40;;;23.17;;
20320;SDS011;10318;47.674;9.052;2022-12-07T00:43:48;36.33;;;23.65;;
20320;SDS011;10318;47.674;9.052;2022-12-07T00:46:15;36.08;;;24.08;;
20320;SDS011;10318;47.674;9.052;2022-12-07T00:48:42;35.88;;;23.10;;
20320;SDS011;10318;47.674;9.052;2022-12-07T00:51:11;36.67;;;23.48;;
20320;SDS011;10318;47.674;9.052;2022-12-07T00:53:38;40.70;;;25.75;;
20320;SDS011;10318;47.674;9.052;2022-12-07T00:56:41;37.78;;;24.65;;
20320;SDS011;10318;47.674;9.052;2022-12-07T00:59:02;36.85;;;23.90;;
20320;SDS011;10318;47.674;9.052;2022-12-07T01:01:30;39.28;;;24.23;;
20320;SDS011;10318;47.674;9.052;2022-12-07T01:03:58;38.20;;;24.42;;
20320;SDS011;10318;47.674;9.052;2022-12-07T01:06:25;37.80;;;23.98;;
20320;SDS011;10318;47.674;9.052;2022-12-07T01:08:52;39.20;;;24.63;;
20320;SDS011;10318;47.674;9.052;2022-12-07T01:11:20;41.50;;;25.48;;
20320;SDS011;10318;47.674;9.052;2022-12-07T01:13:49;40.60;;;25.38;;
20320;SDS011;10318;47.674;9.052;2022-12-07T01:16:16;41.70;;;25.13;;
20320;SDS011;10318;47.674;9.052;2022-12-07T01:18:45;42.75;;;26.30;;
20320;SDS011;10318;47.674;9.052;2022-12-07T01:21:13;39.67;;;23.17;;
20320;SDS011;10318;47.674;9.052;2022-12-07T01:23:40;41.28;;;25.80;;
20320;SDS011;10318;47.674;9.052;2022-12-07T01:26:09;37.22;;;23.08;;
20320;SDS011;10318;47.674;9.052;2022-12-07T01:28:36;39.45;;;24.75;;
20320;SDS011;10318;47.674;9.052;2022-12-07T01:31:04;38.33;;;25.17;;
20320;SDS011;10318;47.674;9.052;2022-12-07T01:33:32;38.67;;;24.40;;
20320;SDS011;10318;47.674;9.052;2022-12-07T01:36:06;38.92;;;25.42;;
20320;SDS011;10318;47.674;9.052;2022-12-07T01:38:33;43.65;;;26.48;;
20320;SDS011;10318;47.674;9.052;2022-12-07T01:41:01;39.33;;;25.55;;
20320;SDS011;10318;47.674;9.052;2022-12-07T01:43:28;40.42;;;25.45;;
20320;SDS011;10318;47.674;9.052;2022-12-07T01:45:55;39.75;;;24.77;;
20320;SDS011;10318;47.674;9.052;2022-12-07T01:48:26;41.65;;;26.13;;
20320;SDS011;10318;47.674;9.052;2022-12-07T01:50:53;38.83;;;25.00;;
20320;SDS011;10318;47.674;9.052;2022-12-07T01:53:24;39.38;;;26.17;;
20320;SDS011;10318;47.674;9.052;2022-12-07T01:55:52;38.35;;;25.17;;
20320;SDS011;10318;47.674;9.052;2022-12-07T01:58:19;37.35;;;24.65;;
20320;SDS011;10318;47.674;9.052;2022-12-07T02:00:47;37.92;;;24.98;;
20320;SDS011;10318;47.674;9.052;2022-12-07T02:03:15;35.95;;;23.38;;
20320;SDS011;10318;47.674;9.052;2022-12-07T02:05:44;41.15;;;25.73;;
20320;SDS011;10318;47.674;9.052;2022-12-07T02:08:12;41.83;;;26.15;;
20320;SDS011;10318;47.674;9.052;2022-12-07T02:10:40;41.42;;;26.48;;
20320;SDS011;10318;47.674;9.052;2022-12-07T02:21:15;38.88;;;25.13;;
20320;SDS011;10318;47.674;9.052;2022-12-07T02:28:51;40.17;;;26.00;;
20320;SDS011;10318;47.674;9.052;2022-12-07T02:31:22;41.00;;;26.60;;
20320;SDS011;10318;47.674;9.052;2022-12-07T02:33:52;42.65;;;26.33;;
20320;SDS011;10318;47.674;9.052;2022-12-07T02:36:25;41.75;;;26.73;;
20320;SDS011;10318;47.674;9.052;2022-12-07T02:39:16;41.75;;;27.40;;
20320;SDS011;10318;47.674;9.052;2022-12-07T02:41:40;44.05;;;26.27;;
20320;SDS011;10318;47.674;9.052;2022-12-07T02:44:10;41.83;;;26.92;;
20320;SDS011;10318;47.674;9.052;2022-12-07T02:46:42;42.65;;;26.23;;
20320;SDS011;10318;47.674;9.052;2022-12-07T02:49:10;40.10;;;24.98;;
20320;SDS011;10318;47.674;9.052;2022-12-07T02:51:41;40.22;;;26.10;;
20320;SDS011;10318;47.674;9.052;2022-12-07T02:54:16;41.15;;;24.50;;
20320;SDS011;10318;47.674;9.052;2022-12-07T02:56:46;40.30;;;26.00;;
20320;SDS011;10318;47.674;9.052;2022-12-07T02:59:22;41.17;;;25.88;;
20320;SDS011;10318;47.674;9.052;2022-12-07T03:09:45;37.05;;;25.08;;
20320;SDS011;10318;47.674;9.052;2022-12-07T03:12:23;38.58;;;24.75;;
20320;SDS011;10318;47.674;9.052;2022-12-07T03:15:35;34.92;;;23.38;;
20320;SDS011;10318;47.674;9.052;2022-12-07T03:17:41;37.67;;;24.27;;
20320;SDS011;10318;47.674;9.052;2022-12-07T03:20:10;36.92;;;23.48;;
20320;SDS011;10318;47.674;9.052;2022-12-07T03:22:38;38.00;;;24.95;;
20320;SDS011;10318;47.674;9.052;2022-12-07T03:25:07;40.67;;;24.88;;
20320;SDS011;10318;47.674;9.052;2022-12-07T03:27:40;37.58;;;23.85;;
20320;SDS011;10318;47.674;9.052;2022-12-07T03:30:15;37.45;;;24.42;;
20320;SDS011;10318;47.674;9.052;2022-12-07T03:35:14;40.28;;;25.10;;
20320;SDS011;10318;47.674;9.052;2022-12-07T03:37:55;36.33;;;23.40;;
20320;SDS011;10318;47.674;9.052;2022-12-07T03:43:16;35.53;;;23.27;;
20320;SDS011;10318;47.674;9.052;2022-12-07T03:45:45;38.15;;;24.75;;
20320;SDS011;10318;47.674;9.052;2022-12-07T03:48:25;37.67;;;24.77;;
20320;SDS011;10318;47.674;9.052;2022-12-07T03:51:00;37.67;;;24.48;;
20320;SDS011;10318;47.674;9.052;2022-12-07T03:53:33;35.22;;;24.35;;
20320;SDS011;10318;47.674;9.052;2022-12-07T03:56:01;37.97;;;25.40;;
20320;SDS011;10318;47.674;9.052;2022-12-07T03:58:28;37.78;;;25.08;;
20320;SDS011;10318;47.674;9.052;2022-12-07T04:00:56;40.45;;;25.40;;
20320;SDS011;10318;47.674;9.052;2022-12-07T04:03:22;39.22;;;24.60;;
20320;SDS011;10318;47.674;9.052;2022-12-07T04:05:49;37.63;;;24.98;;
20320;SDS011;10318;47.674;9.052;2022-12-07T04:08:19;40.42;;;25.80;;
20320;SDS011;10318;47.674;9.052;2022-12-07T04:10:46;40.13;;;24.73;;
20320;SDS011;10318;47.674;9.052;2022-12-07T04:13:13;37.35;;;24.30;;
20320;SDS011;10318;47.674;9.052;2022-12-07T04:15:39;39.50;;;24.83;;
20320;SDS011;10318;47.674;9.052;2022-12-07T04:18:06;37.50;;;24.30;;
20320;SDS011;10318;47.674;9.052;2022-12-07T04:20:33;39.72;;;24.73;;
20320;SDS011;10318;47.674;9.052;2022-12-07T04:22:59;38.70;;;24.45;;
20320;SDS011;10318;47.674;9.052;2022-12-07T04:25:26;38.00;;;25.17;;
20320;SDS011;10318;47.674;9.052;2022-12-07T04:27:53;39.80;;;24.73;;
20320;SDS011;10318;47.674;9.052;2022-12-07T04:30:20;41.55;;;25.60;;
20320;SDS011;10318;47.674;9.052;2022-12-07T04:32:46;41.28;;;26.23;;
20320;SDS011;10318;47.674;9.052;2022-12-07T04:35:13;36.03;;;23.48;;
20320;SDS011;10318;47.674;9.052;2022-12-07T04:37:40;41.90;;;25.10;;
20320;SDS011;10318;47.674;9.052;2022-12-07T04:40:08;45.65;;;27.25;;
20320;SDS011;10318;47.674;9.052;2022-12-07T04:42:37;40.85;;;25.52;;
20320;SDS011;10318;47.674;9.052;2022-12-07T04:45:04;41.30;;;25.92;;
20320;SDS011;10318;47.674;9.052;2022-12-07T04:47:31;40.47;;;25.20;;
20320;SDS011;10318;47.674;9.052;2022-12-07T04:49:57;39.35;;;24.23;;
20320;SDS011;10318;47.674;9.052;2022-12-07T04:52:24;37.90;;;24.75;;
20320;SDS011;10318;47.674;9.052;2022-12-07T04:54:51;40.97;;;24.38;;
20320;SDS011;10318;47.674;9.052;2022-12-07T04:57:17;40.28;;;25.27;;
20320;SDS011;10318;47.674;9.052;2022-12-07T04:59:44;42.42;;;25.45;;
20320;SDS011;10318;47.674;9.052;2022-12-07T05:02:11;43.47;;;25.27;;
20320;SDS011;10318;47.674;9.052;2022-12-07T05:04:38;44.15;;;24.20;;
20320;SDS011;10318;47.674;9.052;2022-12-07T05:07:05;38.13;;;24.45;;
20320;SDS011;10318;47.674;9.052;2022-12-07T05:09:31;39.20;;;23.75;;
20320;SDS011;10318;47.674;9.052;2022-12-07T05:11:58;39.88;;;23.70;;
20320;SDS011;10318;47.674;9.052;2022-12-07T05:14:25;38.58;;;23.20;;
20320;SDS011;10318;47.674;9.052;2022-12-07T05:16:54;35.45;;;21.95;;
20320;SDS011;10318;47.674;9.052;2022-12-07T05:19:21;37.35;;;22.75;;
20320;SDS011;10318;47.674;9.052;2022-12-07T05:21:47;36.72;;;21.52;;
20320;SDS011;10318;47.674;9.052;2022-12-07T05:24:14;34.83;;;21.08;;
20320;SDS011;10318;47.674;9.052;2022-12-07T05:26:41;33.17;;;21.02;;
20320;SDS011;10318;47.674;9.052;2022-12-07T05:29:10;32.45;;;21.25;;
20320;SDS011;10318;47.674;9.052;2022-12-07T05:31:37;33.38;;;20.52;;
20320;SDS011;10318;47.674;9.052;2022-12-07T05:34:04;31.88;;;20.80;;
20320;SDS011;10318;47.674;9.052;2022-12-07T05:36:31;32.05;;;19.73;;
20320;SDS011;10318;47.674;9.052;2022-12-07T05:38:58;30.10;;;19.80;;
20320;SDS011;10318;47.674;9.052;2022-12-07T05:41:25;30.10;;;20.23;;
20320;SDS011;10318;47.674;9.052;2022-12-07T05:44:10;31.42;;;19.50;;
20320;SDS011;10318;47.674;9.052;2022-12-07T05:46:37;29.17;;;19.23;;
20320;SDS011;10318;47.674;9.052;2022-12-07T05:49:03;29.38;;;20.80;;
20320;SDS011;10318;47.674;9.052;2022-12-07T05:51:30;28.38;;;18.92;;
20320;SDS011;10318;47.674;9.052;2022-12-07T05:53:57;27.40;;;17.38;;
20320;SDS011;10318;47.674;9.052;2022-12-07T05:56:24;32.53;;;21.13;;
20320;SDS011;10318;47.674;9.052;2022-12-07T05:58:50;30.42;;;20.45;;
20320;SDS011;10318;47.674;9.052;2022-12-07T06:01:36;30.13;;;20.15;;
20320;SDS011;10318;47.674;9.052;2022-12-07T06:04:02;33.15;;;20.75;;
20320;SDS011;10318;47.674;9.052;2022-12-07T06:06:29;31.45;;;20.80;;
20320;SDS011;10318;47.674;9.052;2022-12-07T06:08:56;26.75;;;18.65;;
20320;SDS011;10318;47.674;9.052;2022-12-07T06:11:22;27.15;;;19.30;;
20320;SDS011;10318;47.674;9.052;2022-12-07T06:14:07;24.83;;;17.40;;
20320;SDS011;10318;47.674;9.052;2022-12-07T06:16:34;28.88;;;17.85;;
20320;SDS011;10318;47.674;9.052;2022-12-07T06:19:01;26.75;;;18.67;;
20320;SDS011;10318;47.674;9.052;2022-12-07T06:21:27;30.90;;;19.95;;
20320;SDS011;10318;47.674;9.052;2022-12-07T06:23:54;29.23;;;18.52;;
20320;SDS011;10318;47.674;9.052;2022-12-07T06:26:21;25.80;;;17.48;;
20320;SDS011;10318;47.674;9.052;2022-12-07T06:28:47;27.70;;;18.55;;
20320;SDS011;10318;47.674;9.052;2022-12-07T06:31:14;30.90;;;19.58;;
20320;SDS011;10318;47.674;9.052;2022-12-07T06:33:41;31.40;;;19.98;;
20320;SDS011;10318;47.674;9.052;2022-12-07T06:36:08;33.17;;;21.35;;
20320;SDS011;10318;47.674;9.052;2022-12-07T06:38:35;31.73;;;19.48;;
20320;SDS011;10318;47.674;9.052;2022-12-07T06:41:02;31.20;;;21.90;;
20320;SDS011;10318;47.674;9.052;2022-12-07T06:43:29;32.78;;;21.55;;
20320;SDS011;10318;47.674;9.052;2022-12-07T06:45:56;33.55;;;22.35;;
20320;SDS011;10318;47.674;9.052;2022-12-07T06:48:22;40.25;;;26.65;;
20320;SDS011;10318;47.674;9.052;2022-12-07T06:50:49;37.88;;;24.20;;
20320;SDS011;10318;47.674;9.052;2022-12-07T06:53:20;35.50;;;21.92;;
20320;SDS011;10318;47.674;9.052;2022-12-07T06:55:47;31.38;;;21.92;;
20320;SDS011;10318;47.674;9.052;2022-12-07T06:58:13;31.48;;;21.63;;
20320;SDS011;10318;47.674;9.052;2022-12-07T07:00:40;41.25;;;24.23;;
20320;SDS011;10318;47.674;9.052;2022-12-07T07:03:07;37.35;;;23.45;;
20320;SDS011;10318;47.674;9.052;2022-12-07T07:05:34;36.85;;;23.35;;
20320;SDS011;10318;47.674;9.052;2022-12-07T07:08:01;33.53;;;22.13;;
20320;SDS011;10318;47.674;9.052;2022-12-07T07:10:48;30.30;;;20.77;;
20320;SDS011;10318;47.674;9.052;2022-12-07T07:13:14;31.33;;;20.67;;
20320;SDS011;10318;47.674;9.052;2022-12-07T07:15:41;31.45;;;19.55;;
20320;SDS011;10318;47.674;9.052;2022-12-07T07:18:08;30.35;;;20.52;;
20320;SDS011;10318;47.674;9.052;2022-12-07T07:20:35;31.85;;;21.20;;
20320;SDS011;10318;47.674;9.052;2022-12-07T07:23:01;34.03;;;21.70;;
20320;SDS011;10318;47.674;9.052;2022-12-07T07:25:28;27.92;;;19.25;;
20320;SDS011;10318;47.674;9.052;2022-12-07T07:27:55;33.55;;;21.55;;
20320;SDS011;10318;47.674;9.052;2022-12-07T07:30:22;30.30;;;21.23;;
20320;SDS011;10318;47.674;9.052;2022-12-07T07:32:49;28.60;;;18.85;;
20320;SDS011;10318;47.674;9.052;2022-12-07T07:35:15;30.38;;;20.10;;
20320;SDS011;10318;47.674;9.052;2022-12-07T07:37:42;35.78;;;22.42;;
20320;SDS011;10318;47.674;9.052;2022-12-07T07:40:09;28.98;;;20.52;;
20320;SDS011;10318;47.674;9.052;2022-12-07T07:42:36;32.17;;;19.98;;
20320;SDS011;10318;47.674;9.052;2022-12-07T07:45:03;30.02;;;19.40;;
20320;SDS011;10318;47.674;9.052;2022-12-07T07:47:30;28.75;;;18.75;;
20320;SDS011;10318;47.674;9.052;2022-12-07T07:49:57;29.73;;;18.55;;
20320;SDS011;10318;47.674;9.052;2022-12-07T07:52:24;26.98;;;18.30;;
20320;SDS011;10318;47.674;9.052;2022-12-07T07:54:51;27.27;;;17.60;;
20320;SDS011;10318;47.674;9.052;2022-12-07T07:57:17;28.75;;;17.05;;
20320;SDS011;10318;47.674;9.052;2022-12-07T07:59:44;22.90;;;15.85;;
20320;SDS011;10318;47.674;9.052;2022-12-07T08:02:14;26.98;;;18.27;;
20320;SDS011;10318;47.674;9.052;2022-12-07T08:04:41;24.48;;;16.95;;
20320;SDS011;10318;47.674;9.052;2022-12-07T08:07:08;26.95;;;16.77;;
20320;SDS011;10318;47.674;9.052;2022-12-07T08:09:35;26.30;;;16.27;;
20320;SDS011;10318;47.674;9.052;2022-12-07T08:12:02;25.30;;;16.20;;
20320;SDS011;10318;47.674;9.052;2022-12-07T08:14:28;23.08;;;16.35;;
20320;SDS011;10318;47.674;9.052;2022-12-07T08:16:55;23.95;;;16.65;;
20320;SDS011;10318;47.674;9.052;2022-12-07T08:19:22;24.73;;;15.70;;
20320;SDS011;10318;47.674;9.052;2022-12-07T08:21:49;23.77;;;15.23;;
20320;SDS011;10318;47.674;9.052;2022-12-07T08:24:16;22.05;;;14.90;;
20320;SDS011;10318;47.674;9.052;2022-12-07T08:26:42;21.48;;;14.75;;
20320;SDS011;10318;47.674;9.052;2022-12-07T08:29:09;22.02;;;14.98;;
20320;SDS011;10318;47.674;9.052;2022-12-07T08:31:36;21.67;;;14.82;;
20320;SDS011;10318;47.674;9.052;2022-12-07T08:34:03;23.05;;;15.88;;
20320;SDS011;10318;47.674;9.052;2022-12-07T08:36:29;23.80;;;14.77;;
20320;SDS011;10318;47.674;9.052;2022-12-07T08:38:56;23.70;;;15.35;;
20320;SDS011;10318;47.674;9.052;2022-12-07T08:41:42;21.50;;;14.55;;
20320;SDS011;10318;47.674;9.052;2022-12-07T08:44:09;23.88;;;14.65;;
20320;SDS011;10318;47.674;9.052;2022-12-07T08:47:00;23.45;;;15.63;;
20320;SDS011;10318;47.674;9.052;2022-12-07T08:49:39;21.42;;;14.82;;
20320;SDS011;10318;47.674;9.052;2022-12-07T08:52:15;23.30;;;14.88;;
20320;SDS011;10318;47.674;9.052;2022-12-07T08:54:47;22.83;;;14.40;;
20320;SDS011;10318;47.674;9.052;2022-12-07T08:57:14;23.38;;;15.20;;
20320;SDS011;10318;47.674;9.052;2022-12-07T08:59:41;22.10;;;14.45;;
20320;SDS011;10318;47.674;9.052;2022-12-07T09:02:07;23.00;;;14.43;;
20320;SDS011;10318;47.674;9.052;2022-12-07T09:04:34;21.92;;;14.02;;
20320;SDS011;10318;47.674;9.052;2022-12-07T09:07:01;21.20;;;14.57;;
20320;SDS011;10318;47.674;9.052;2022-12-07T09:09:27;22.05;;;14.13;;
20320;SDS011;10318;47.674;9.052;2022-12-07T09:11:54;24.15;;;15.40;;
20320;SDS011;10318;47.674;9.052;2022-12-07T09:14:21;21.55;;;14.85;;
20320;SDS011;10318;47.674;9.052;2022-12-07T09:16:48;21.88;;;14.32;;
20320;SDS011;10318;47.674;9.052;2022-12-07T09:19:17;21.92;;;14.63;;
20320;SDS011;10318;47.674;9.052;2022-12-07T09:21:44;21.58;;;15.18;;
20320;SDS011;10318;47.674;9.052;2022-12-07T09:24:12;21.90;;;14.75;;
20320;SDS011;10318;47.674;9.052;2022-12-07T09:26:38;23.10;;;14.57;;
20320;SDS011;10318;47.674;9.052;2022-12-07T09:29:06;28.65;;;18.45;;
20320;SDS011;10318;47.674;9.052;2022-12-07T09:31:35;26.92;;;17.17;;
20320;SDS011;10318;47.674;9.052;2022-12-07T09:34:02;35.92;;;20.95;;
20320;SDS011;10318;47.674;9.052;2022-12-07T09:36:31;36.33;;;22.08;;
20320;SDS011;10318;47.674;9.052;2022-12-07T09:38:58;35.13;;;21.60;;
20320;SDS011;10318;47.674;9.052;2022-12-07T09:41:25;33.40;;;20.83;;
20320;SDS011;10318;47.674;9.052;2022-12-07T09:43:53;31.50;;;19.52;;
20320;SDS011;10318;47.674;9.052;2022-12-07T09:46:24;33.70;;;20.67;;
20320;SDS011;10318;47.674;9.052;2022-12-07T09:48:51;32.90;;;19.90;;
20320;SDS011;10318;47.674;9.052;2022-12-07T09:53:49;30.30;;;19.13;;
20320;SDS011;10318;47.674;9.052;2022-12-07T09:56:17;34.90;;;20.73;;
20320;SDS011;10318;47.674;9.052;2022-12-07T09:58:44;30.30;;;19.23;;
20320;SDS011;10318;47.674;9.052;2022-12-07T10:01:18;31.95;;;18.73;;
20320;SDS011;10318;47.674;9.052;2022-12-07T10:03:50;31.13;;;17.75;;
20320;SDS011;10318;47.674;9.052;2022-12-07T10:06:17;30.95;;;19.23;;
20320;SDS011;10318;47.674;9.052;2022-12-07T10:08:44;27.60;;;16.73;;
20320;SDS011;10318;47.674;9.052;2022-12-07T10:11:11;31.55;;;18.23;;
20320;SDS011;10318;47.674;9.052;2022-12-07T10:13:47;29.55;;;18.02;;
20320;SDS011;10318;47.674;9.052;2022-12-07T10:18:51;27.30;;;16.60;;
20320;SDS011;10318;47.674;9.052;2022-12-07T10:21:19;29.50;;;16.85;;
20320;SDS011;10318;47.674;9.052;2022-12-07T10:26:29;26.73;;;15.70;;
20320;SDS011;10318;47.674;9.052;2022-12-07T10:28:58;24.83;;;15.13;;
20320;SDS011;10318;47.674;9.052;2022-12-07T10:31:25;22.17;;;14.35;;
20320;SDS011;10318;47.674;9.052;2022-12-07T10:33:53;22.13;;;14.30;;
20320;SDS011;10318;47.674;9.052;2022-12-07T10:38:47;22.38;;;14.82;;
20320;SDS011;10318;47.674;9.052;2022-12-07T10:41:14;22.00;;;14.52;;
20320;SDS011;10318;47.674;9.052;2022-12-07T10:43:48;23.13;;;14.98;;
20320;SDS011;10318;47.674;9.052;2022-12-07T11:02:09;16.25;;;10.13;;
20320;SDS011;10318;47.674;9.052;2022-12-07T11:13:04;21.30;;;14.05;;
20320;SDS011;10318;47.674;9.052;2022-12-07T11:26:05;21.15;;;13.75;;
20320;SDS011;10318;47.674;9.052;2022-12-07T11:28:33;23.20;;;14.15;;
20320;SDS011;10318;47.674;9.052;2022-12-07T11:38:47;22.23;;;13.65;;
20320;SDS011;10318;47.674;9.052;2022-12-07T11:41:20;19.08;;;13.10;;
20320;SDS011;10318;47.674;9.052;2022-12-07T11:44:08;19.13;;;12.45;;
20320;SDS011;10318;47.674;9.052;2022-12-07T11:49:09;23.90;;;13.23;;
20320;SDS011;10318;47.674;9.052;2022-12-07T11:51:38;18.60;;;13.25;;
20320;SDS011;10318;47.674;9.052;2022-12-07T11:54:11;18.23;;;12.23;;
20320;SDS011;10318;47.674;9.052;2022-12-07T11:56:40;19.98;;;12.88;;
20320;SDS011;10318;47.674;9.052;2022-12-07T11:59:15;19.27;;;12.63;;
20320;SDS011;10318;47.674;9.052;2022-12-07T12:01:54;18.67;;;12.35;;
20320;SDS011;10318;47.674;9.052;2022-12-07T12:04:40;20.10;;;13.00;;
20320;SDS011;10318;47.674;9.052;2022-12-07T12:07:13;18.25;;;12.20;;
20320;SDS011;10318;47.674;9.052;2022-12-07T12:10:06;19.27;;;12.70;;
20320;SDS011;10318;47.674;9.052;2022-12-07T12:12:43;23.88;;;12.55;;
20320;SDS011;10318;47.674;9.052;2022-12-07T12:15:42;18.15;;;11.77;;
20320;SDS011;10318;47.674;9.052;2022-12-07T12:20:47;18.48;;;11.85;;
20320;SDS011;10318;47.674;9.052;2022-12-07T12:23:50;17.75;;;11.60;;
20320;SDS011;10318;47.674;9.052;2022-12-07T12:26:17;16.55;;;11.40;;
20320;SDS011;10318;47.674;9.052;2022-12-07T12:28:54;18.00;;;11.20;;
20320;SDS011;10318;47.674;9.052;2022-12-07T12:33:49;15.13;;;10.80;;
20320;SDS011;10318;47.674;9.052;2022-12-07T12:46:58;18.55;;;11.90;;
20320;SDS011;10318;47.674;9.052;2022-12-07T12:59:28;17.50;;;10.27;;
20320;SDS011;10318;47.674;9.052;2022-12-07T13:04:49;16.73;;;10.05;;
20320;SDS011;10318;47.674;9.052;2022-12-07T13:10:02;15.60;;;10.18;;
20320;SDS011;10318;47.674;9.052;2022-12-07T13:12:29;14.60;;;10.45;;
20320;SDS011;10318;47.674;9.052;2022-12-07T13:14:59;12.43;;;9.27;;
20320;SDS011;10318;47.674;9.052;2022-12-07T13:20:00;13.75;;;9.75;;
20320;SDS011;10318;47.674;9.052;2022-12-07T13:25:09;11.90;;;8.93;;
20320;SDS011;10318;47.674;9.052;2022-12-07T13:27:37;11.70;;;8.68;;
20320;SDS011;10318;47.674;9.052;2022-12-07T13:30:23;13.32;;;9.07;;
20320;SDS011;10318;47.674;9.052;2022-12-07T13:32:53;14.30;;;9.15;;
20320;SDS011;10318;47.674;9.052;2022-12-07T13:35:34;13.63;;;8.45;;
20320;SDS011;10318;47.674;9.052;2022-12-07T13:38:02;12.55;;;8.75;;
20320;SDS011;10318;47.674;9.052;2022-12-07T13:40:29;12.07;;;8.50;;
20320;SDS011;10318;47.674;9.052;2022-12-07T13:43:03;10.32;;;7.82;;
20320;SDS011;10318;47.674;9.052;2022-12-07T13:45:31;11.73;;;9.02;;
20320;SDS011;10318;47.674;9.052;2022-12-07T13:48:16;11.27;;;8.50;;
20320;SDS011;10318;47.674;9.052;2022-12-07T13:50:52;12.40;;;9.05;;
20320;SDS011;10318;47.674;9.052;2022-12-07T13:53:19;13.25;;;9.35;;
20320;SDS011;10318;47.674;9.052;2022-12-07T13:55:46;18.77;;;9.43;;
20320;SDS011;10318;47.674;9.052;2022-12-07T13:58:19;13.32;;;8.52;;
20320;SDS011;10318;47.674;9.052;2022-12-07T14:00:46;10.50;;;8.35;;
20320;SDS011;10318;47.674;9.052;2022-12-07T14:05:41;12.40;;;9.27;;
20320;SDS011;10318;47.674;9.052;2022-12-07T14:10:41;10.60;;;8.13;;
20320;SDS011;10318;47.674;9.052;2022-12-07T14:15:49;12.85;;;9.75;;
20320;SDS011;10318;47.674;9.052;2022-12-07T14:23:30;16.55;;;11.07;;
20320;SDS011;10318;47.674;9.052;2022-12-07T14:26:10;16.58;;;11.55;;
20320;SDS011;10318;47.674;9.052;2022-12-07T14:28:37;19.35;;;11.77;;
20320;SDS011;10318;47.674;9.052;2022-12-07T14:31:08;17.25;;;11.75;;
20320;SDS011;10318;47.674;9.052;2022-12-07T14:33:40;18.02;;;12.20;;
20320;SDS011;10318;47.674;9.052;2022-12-07T14:36:11;16.38;;;11.45;;
20320;SDS011;10318;47.674;9.052;2022-12-07T14:38:38;17.40;;;11.10;;
20320;SDS011;10318;47.674;9.052;2022-12-07T14:41:14;17.40;;;12.35;;
20320;SDS011;10318;47.674;9.052;2022-12-07T14:44:00;21.10;;;13.60;;
20320;SDS011;10318;47.674;9.052;2022-12-07T14:46:47;18.08;;;12.18;;
20320;SDS011;10318;47.674;9.052;2022-12-07T14:49:15;18.55;;;12.43;;
20320;SDS011;10318;47.674;9.052;2022-12-07T14:51:57;23.38;;;12.57;;
20320;SDS011;10318;47.674;9.052;2022-12-07T14:54:44;20.52;;;13.48;;
20320;SDS011;10318;47.674;9.052;2022-12-07T14:57:11;17.92;;;12.00;;
20320;SDS011;10318;47.674;9.052;2022-12-07T14:59:38;17.38;;;11.98;;
20320;SDS011;10318;47.674;9.052;2022-12-07T15:02:13;17.33;;;12.23;;
20320;SDS011;10318;47.674;9.052;2022-12-07T15:04:40;17.38;;;11.52;;
20320;SDS011;10318;47.674;9.052;2022-12-07T15:07:26;17.55;;;11.38;;
20320;SDS011;10318;47.674;9.052;2022-12-07T15:09:52;17.83;;;11.95;;
20320;SDS011;10318;47.674;9.052;2022-12-07T15:12:19;17.02;;;11.90;;
20320;SDS011;10318;47.674;9.052;2022-12-07T15:14:46;15.70;;;11.38;;
20320;SDS011;10318;47.674;9.052;2022-12-07T15:17:13;17.80;;;12.15;;
20320;SDS011;10318;47.674;9.052;2022-12-07T15:19:56;17.90;;;12.13;;
20320;SDS011;10318;47.674;9.052;2022-12-07T15:22:23;18.30;;;11.75;;
20320;SDS011;10318;47.674;9.052;2022-12-07T15:24:50;17.67;;;11.85;;
20320;SDS011;10318;47.674;9.052;2022-12-07T15:27:16;17.90;;;12.02;;
20320;SDS011;10318;47.674;9.052;2022-12-07T15:29:43;19.20;;;12.07;;
20320;SDS011;10318;47.674;9.052;2022-12-07T15:32:10;16.70;;;11.98;;
20320;SDS011;10318;47.674;9.052;2022-12-07T15:34:36;15.70;;;11.43;;
20320;SDS011;10318;47.674;9.052;2022-12-07T15:37:06;24.25;;;11.40;;
20320;SDS011;10318;47.674;9.052;2022-12-07T15:39:33;16.33;;;10.95;;
20320;SDS011;10318;47.674;9.052;2022-12-07T15:42:00;17.38;;;11.05;;
20320;SDS011;10318;47.674;9.052;2022-12-07T15:44:26;16.45;;;11.88;;
20320;SDS011;10318;47.674;9.052;2022-12-07T15:47:11;19.90;;;11.48;;
20320;SDS011;10318;47.674;9.052;2022-12-07T15:49:38;19.92;;;12.57;;
20320;SDS011;10318;47.674;9.052;2022-12-07T15:52:05;15.75;;;10.82;;
20320;SDS011;10318;47.674;9.052;2022-12-07T15:54:31;14.98;;;10.57;;
20320;SDS011;10318;47.674;9.052;2022-12-07T15:56:59;17.33;;;11.23;;
20320;SDS011;10318;47.674;9.052;2022-12-07T15:59:26;19.10;;;11.90;;
20320;SDS011;10318;47.674;9.052;2022-12-07T16:01:53;15.65;;;11.35;;
20320;SDS011;10318;47.674;9.052;2022-12-07T16:04:20;18.50;;;12.00;;
20320;SDS011;10318;47.674;9.052;2022-12-07T16:06:47;15.23;;;11.13;;
20320;SDS011;10318;47.674;9.052;2022-12-07T16:09:13;20.63;;;12.15;;
20320;SDS011;10318;47.674;9.052;2022-12-07T16:11:40;17.38;;;11.27;;
20320;SDS011;10318;47.674;9.052;2022-12-07T16:14:07;16.52;;;11.50;;
20320;SDS011;10318;47.674;9.052;2022-12-07T16:16:33;16.17;;;11.40;;
20320;SDS011;10318;47.674;9.052;2022-12-07T16:19:00;15.98;;;11.40;;
20320;SDS011;10318;47.674;9.052;2022-12-07T16:21:27;16.20;;;11.70;;
20320;SDS011;10318;47.674;9.052;2022-12-07T16:23:53;15.50;;;11.02;;
20320;SDS011;10318;47.674;9.052;2022-12-07T16:26:21;17.17;;;12.43;;
20320;SDS011;10318;47.674;9.052;2022-12-07T16:28:48;17.27;;;11.65;;
20320;SDS011;10318;47.674;9.052;2022-12-07T16:31:16;15.60;;;11.27;;
20320;SDS011;10318;47.674;9.052;2022-12-07T16:33:44;21.55;;;12.93;;
20320;SDS011;10318;47.674;9.052;2022-12-07T16:36:11;20.20;;;12.13;;
20320;SDS011;10318;47.674;9.052;2022-12-07T16:38:38;20.63;;;12.38;;
20320;SDS011;10318;47.674;9.052;2022-12-07T16:41:06;16.83;;;11.13;;
20320;SDS011;10318;47.674;9.052;2022-12-07T16:43:33;16.65;;;11.52;;
20320;SDS011;10318;47.674;9.052;2022-12-07T16:46:00;18.13;;;12.20;;
20320;SDS011;10318;47.674;9.052;2022-12-07T16:48:27;18.10;;;11.63;;